sensor_id;sensor_type;location;lat;lon;timestamp;P1;durP1;ratioP1;P2;durP2;ratioP2
10479;SDS011;12789;42.610;23.040;2022-11-25T00:00:53;3.60;;;3.30;;
10479;SDS011;12789;42.610;23.040;2022-11-25T00:03:28;3.30;;;3.00;;
10479;SDS011;12789;42.610;23.040;2022-11-25T00:05:55;3.80;;;2.73;;
10479;SDS011;12789;42.610;23.040;2022-11-25T00:08:22;3.50;;;3.20;;
10479;SDS011;12789;42.610;23.040;2022-11-25T00:10:49;3.40;;;3.10;;
10479;SDS011;12789;42.610;23.040;2022-11-25T00:13:17;4.73;;;3.60;;
10479;SDS011;12789;42.610;23.040;2022-11-25T00:15:44;5.37;;;3.23;;
10479;SDS011;12789;42.610;23.040;2022-11-25T00:18:10;2.77;;;2.57;;
10479;SDS011;12789;42.610;23.040;2022-11-25T00:20:37;3.00;;;2.80;;
10479;SDS011;12789;42.610;23.040;2022-11-25T00:23:04;4.43;;;3.23;;
10479;SDS011;12789;42.610;23.040;2022-11-25T00:25:31;3.33;;;3.03;;
10479;SDS011;12789;42.610;23.040;2022-11-25T00:27:57;3.30;;;3.00;;
10479;SDS011;12789;42.610;23.040;2022-11-25T00:30:25;3.07;;;2.20;;
10479;SDS011;12789;42.610;23.040;2022-11-25T00:32:52;3.40;;;2.70;;
10479;SDS011;12789;42.610;23.040;2022-11-25T00:35:19;3.53;;;3.10;;
10479;SDS011;12789;42.610;23.040;2022-11-25T00:37:46;5.13;;;3.00;;
10479;SDS011;12789;42.610;23.040;2022-11-25T00:40:12;6.27;;;3.03;;
10479;SDS011;12789;42.610;23.040;2022-11-25T00:42:39;3.20;;;2.90;;
10479;SDS011;12789;42.610;23.040;2022-11-25T00:45:23;4.10;;;2.93;;
10479;SDS011;12789;42.610;23.040;2022-11-25T00:47:53;3.90;;;3.03;;
10479;SDS011;12789;42.610;23.040;2022-11-25T00:50:19;3.20;;;2.90;;
10479;SDS011;12789;42.610;23.040;2022-11-25T00:52:46;3.27;;;2.80;;
10479;SDS011;12789;42.610;23.040;2022-11-25T00:55:13;2.93;;;2.70;;
10479;SDS011;12789;42.610;23.040;2022-11-25T00:57:40;2.70;;;2.50;;
10479;SDS011;12789;42.610;23.040;2022-11-25T01:00:08;3.37;;;3.07;;
10479;SDS011;12789;42.610;23.040;2022-11-25T01:02:35;3.00;;;2.70;;
10479;SDS011;12789;42.610;23.040;2022-11-25T01:05:04;3.50;;;2.87;;
10479;SDS011;12789;42.610;23.040;2022-11-25T01:07:31;3.20;;;2.90;;
10479;SDS011;12789;42.610;23.040;2022-11-25T01:09:58;3.63;;;3.13;;
10479;SDS011;12789;42.610;23.040;2022-11-25T01:12:25;3.30;;;3.00;;
10479;SDS011;12789;42.610;23.040;2022-11-25T01:14:51;3.40;;;3.00;;
10479;SDS011;12789;42.610;23.040;2022-11-25T01:17:19;4.30;;;2.80;;
10479;SDS011;12789;42.610;23.040;2022-11-25T01:19:46;3.57;;;2.93;;
10479;SDS011;12789;42.610;23.040;2022-11-25T01:22:14;3.70;;;2.93;;
10479;SDS011;12789;42.610;23.040;2022-11-25T01:24:41;4.60;;;2.90;;
10479;SDS011;12789;42.610;23.040;2022-11-25T01:27:08;4.13;;;3.20;;
10479;SDS011;12789;42.610;23.040;2022-11-25T01:29:34;4.13;;;3.23;;
10479;SDS011;12789;42.610;23.040;2022-11-25T01:32:01;2.97;;;2.67;;
10479;SDS011;12789;42.610;23.040;2022-11-25T01:34:28;3.33;;;3.03;;
10479;SDS011;12789;42.610;23.040;2022-11-25T01:36:56;3.70;;;3.30;;
10479;SDS011;12789;42.610;23.040;2022-11-25T01:39:25;3.47;;;3.17;;
10479;SDS011;12789;42.610;23.040;2022-11-25T01:41:52;3.13;;;2.90;;
10479;SDS011;12789;42.610;23.040;2022-11-25T01:44:19;3.27;;;2.97;;
10479;SDS011;12789;42.610;23.040;2022-11-25T01:46:48;2.77;;;2.57;;
10479;SDS011;12789;42.610;23.040;2022-11-25T01:49:17;2.90;;;2.60;;
10479;SDS011;12789;42.610;23.040;2022-11-25T01:51:45;3.67;;;3.07;;
10479;SDS011;12789;42.610;23.040;2022-11-25T01:54:15;3.47;;;3.13;;
10479;SDS011;12789;42.610;23.040;2022-11-25T01:56:45;3.40;;;3.10;;
10479;SDS011;12789;42.610;23.040;2022-11-25T01:59:12;4.00;;;3.30;;
10479;SDS011;12789;42.610;23.040;2022-11-25T02:01:39;3.27;;;3.07;;
10479;SDS011;12789;42.610;23.040;2022-11-25T02:04:06;4.03;;;3.63;;
10479;SDS011;12789;42.610;23.040;2022-11-25T02:06:37;4.07;;;3.67;;
10479;SDS011;12789;42.610;23.040;2022-11-25T02:09:06;3.70;;;3.30;;
10479;SDS011;12789;42.610;23.040;2022-11-25T02:11:34;4.03;;;3.63;;
10479;SDS011;12789;42.610;23.040;2022-11-25T02:14:03;4.10;;;3.70;;
10479;SDS011;12789;42.610;23.040;2022-11-25T02:16:30;4.00;;;3.50;;
10479;SDS011;12789;42.610;23.040;2022-11-25T02:18:57;4.03;;;3.70;;
10479;SDS011;12789;42.610;23.040;2022-11-25T02:21:25;4.50;;;3.53;;
10479;SDS011;12789;42.610;23.040;2022-11-25T02:23:52;3.73;;;3.43;;
10479;SDS011;12789;42.610;23.040;2022-11-25T02:26:24;5.13;;;3.60;;
10479;SDS011;12789;42.610;23.040;2022-11-25T02:28:51;4.13;;;3.63;;
10479;SDS011;12789;42.610;23.040;2022-11-25T02:31:18;5.03;;;3.40;;
10479;SDS011;12789;42.610;23.040;2022-11-25T02:33:45;4.27;;;3.53;;
10479;SDS011;12789;42.610;23.040;2022-11-25T02:36:13;4.57;;;4.10;;
10479;SDS011;12789;42.610;23.040;2022-11-25T02:38:41;5.43;;;3.73;;
10479;SDS011;12789;42.610;23.040;2022-11-25T02:41:09;4.50;;;3.43;;
10479;SDS011;12789;42.610;23.040;2022-11-25T02:43:39;4.23;;;3.70;;
10479;SDS011;12789;42.610;23.040;2022-11-25T02:46:06;4.57;;;3.53;;
10479;SDS011;12789;42.610;23.040;2022-11-25T02:48:35;3.33;;;3.03;;
10479;SDS011;12789;42.610;23.040;2022-11-25T02:51:01;3.80;;;3.50;;
10479;SDS011;12789;42.610;23.040;2022-11-25T02:53:28;5.60;;;3.53;;
10479;SDS011;12789;42.610;23.040;2022-11-25T02:55:55;4.20;;;3.87;;
10479;SDS011;12789;42.610;23.040;2022-11-25T02:58:22;3.67;;;3.37;;
10479;SDS011;12789;42.610;23.040;2022-11-25T03:00:51;4.07;;;3.67;;
10479;SDS011;12789;42.610;23.040;2022-11-25T03:03:18;3.70;;;3.40;;
10479;SDS011;12789;42.610;23.040;2022-11-25T03:05:45;3.60;;;3.17;;
10479;SDS011;12789;42.610;23.040;2022-11-25T03:08:12;4.23;;;3.83;;
10479;SDS011;12789;42.610;23.040;2022-11-25T03:10:39;3.47;;;3.17;;
10479;SDS011;12789;42.610;23.040;2022-11-25T03:13:06;8.37;;;3.27;;
10479;SDS011;12789;42.610;23.040;2022-11-25T03:15:34;3.70;;;3.30;;
10479;SDS011;12789;42.610;23.040;2022-11-25T03:18:03;2.90;;;2.70;;
10479;SDS011;12789;42.610;23.040;2022-11-25T03:20:30;7.07;;;3.30;;
10479;SDS011;12789;42.610;23.040;2022-11-25T03:22:57;4.50;;;3.57;;
10479;SDS011;12789;42.610;23.040;2022-11-25T03:25:23;4.00;;;3.60;;
10479;SDS011;12789;42.610;23.040;2022-11-25T03:27:50;4.00;;;3.60;;
10479;SDS011;12789;42.610;23.040;2022-11-25T03:30:17;3.17;;;2.87;;
10479;SDS011;12789;42.610;23.040;2022-11-25T03:32:44;5.83;;;3.53;;
10479;SDS011;12789;42.610;23.040;2022-11-25T03:35:13;4.17;;;3.37;;
10479;SDS011;12789;42.610;23.040;2022-11-25T03:37:40;4.93;;;2.93;;
10479;SDS011;12789;42.610;23.040;2022-11-25T03:40:08;4.20;;;3.80;;
10479;SDS011;12789;42.610;23.040;2022-11-25T03:42:35;3.50;;;3.20;;
10479;SDS011;12789;42.610;23.040;2022-11-25T03:45:02;3.20;;;2.90;;
10479;SDS011;12789;42.610;23.040;2022-11-25T03:47:29;3.00;;;2.70;;
10479;SDS011;12789;42.610;23.040;2022-11-25T03:49:55;3.30;;;3.00;;
10479;SDS011;12789;42.610;23.040;2022-11-25T03:52:24;2.80;;;2.60;;
10479;SDS011;12789;42.610;23.040;2022-11-25T03:54:51;3.07;;;2.77;;
10479;SDS011;12789;42.610;23.040;2022-11-25T03:57:19;3.53;;;3.27;;
10479;SDS011;12789;42.610;23.040;2022-11-25T03:59:46;4.00;;;3.70;;
10479;SDS011;12789;42.610;23.040;2022-11-25T04:02:13;3.90;;;3.50;;
10479;SDS011;12789;42.610;23.040;2022-11-25T04:04:39;5.57;;;3.50;;
10479;SDS011;12789;42.610;23.040;2022-11-25T04:07:07;6.30;;;3.80;;
10479;SDS011;12789;42.610;23.040;2022-11-25T04:09:36;5.13;;;3.97;;
10479;SDS011;12789;42.610;23.040;2022-11-25T04:12:02;5.40;;;3.60;;
10479;SDS011;12789;42.610;23.040;2022-11-25T04:14:46;3.23;;;3.03;;
10479;SDS011;12789;42.610;23.040;2022-11-25T04:17:13;2.47;;;2.27;;
10479;SDS011;12789;42.610;23.040;2022-11-25T04:19:40;3.07;;;2.87;;
10479;SDS011;12789;42.610;23.040;2022-11-25T04:22:07;3.17;;;2.77;;
10479;SDS011;12789;42.610;23.040;2022-11-25T04:24:35;4.40;;;2.90;;
10479;SDS011;12789;42.610;23.040;2022-11-25T04:27:02;4.93;;;2.70;;
10479;SDS011;12789;42.610;23.040;2022-11-25T04:29:29;2.13;;;2.03;;
10479;SDS011;12789;42.610;23.040;2022-11-25T04:31:56;3.03;;;2.80;;
10479;SDS011;12789;42.610;23.040;2022-11-25T04:34:22;2.97;;;2.70;;
10479;SDS011;12789;42.610;23.040;2022-11-25T04:36:49;3.37;;;2.50;;
10479;SDS011;12789;42.610;23.040;2022-11-25T04:39:16;2.30;;;2.10;;
10479;SDS011;12789;42.610;23.040;2022-11-25T04:41:44;5.20;;;2.20;;
10479;SDS011;12789;42.610;23.040;2022-11-25T04:44:11;2.20;;;1.90;;
10479;SDS011;12789;42.610;23.040;2022-11-25T04:46:38;1.93;;;1.80;;
10479;SDS011;12789;42.610;23.040;2022-11-25T04:49:05;2.60;;;1.97;;
10479;SDS011;12789;42.610;23.040;2022-11-25T04:51:32;2.17;;;1.90;;
10479;SDS011;12789;42.610;23.040;2022-11-25T04:53:59;1.87;;;1.77;;
10479;SDS011;12789;42.610;23.040;2022-11-25T04:56:25;2.10;;;1.70;;
10479;SDS011;12789;42.610;23.040;2022-11-25T04:58:54;2.67;;;1.83;;
10479;SDS011;12789;42.610;23.040;2022-11-25T05:01:39;1.77;;;1.67;;
10479;SDS011;12789;42.610;23.040;2022-11-25T05:04:06;2.97;;;2.50;;
10479;SDS011;12789;42.610;23.040;2022-11-25T05:06:32;2.57;;;2.07;;
10479;SDS011;12789;42.610;23.040;2022-11-25T05:08:59;3.43;;;2.30;;
10479;SDS011;12789;42.610;23.040;2022-11-25T05:11:26;2.40;;;2.20;;
10479;SDS011;12789;42.610;23.040;2022-11-25T05:13:54;2.17;;;1.93;;
10479;SDS011;12789;42.610;23.040;2022-11-25T05:16:20;3.10;;;2.00;;
10479;SDS011;12789;42.610;23.040;2022-11-25T05:18:47;3.97;;;2.40;;
10479;SDS011;12789;42.610;23.040;2022-11-25T05:21:14;2.43;;;2.27;;
10479;SDS011;12789;42.610;23.040;2022-11-25T05:23:41;2.80;;;2.60;;
10479;SDS011;12789;42.610;23.040;2022-11-25T05:26:07;3.17;;;2.83;;
10479;SDS011;12789;42.610;23.040;2022-11-25T05:28:34;3.50;;;2.50;;
10479;SDS011;12789;42.610;23.040;2022-11-25T05:31:03;3.47;;;2.40;;
10479;SDS011;12789;42.610;23.040;2022-11-25T05:33:29;3.00;;;2.70;;
10479;SDS011;12789;42.610;23.040;2022-11-25T05:35:56;4.63;;;3.20;;
10479;SDS011;12789;42.610;23.040;2022-11-25T05:38:23;5.00;;;3.00;;
10479;SDS011;12789;42.610;23.040;2022-11-25T05:40:50;4.10;;;3.10;;
10479;SDS011;12789;42.610;23.040;2022-11-25T05:43:17;4.20;;;2.57;;
10479;SDS011;12789;42.610;23.040;2022-11-25T05:45:45;3.00;;;2.70;;
10479;SDS011;12789;42.610;23.040;2022-11-25T05:48:14;4.47;;;3.00;;
10479;SDS011;12789;42.610;23.040;2022-11-25T05:50:40;2.70;;;2.50;;
10479;SDS011;12789;42.610;23.040;2022-11-25T05:53:07;3.50;;;3.20;;
10479;SDS011;12789;42.610;23.040;2022-11-25T05:55:35;3.80;;;2.40;;
10479;SDS011;12789;42.610;23.040;2022-11-25T05:58:09;3.17;;;2.87;;
10479;SDS011;12789;42.610;23.040;2022-11-25T06:00:53;5.80;;;4.10;;
10479;SDS011;12789;42.610;23.040;2022-11-25T06:03:23;7.37;;;4.03;;
10479;SDS011;12789;42.610;23.040;2022-11-25T06:05:50;3.77;;;3.10;;
10479;SDS011;12789;42.610;23.040;2022-11-25T06:08:17;5.70;;;3.17;;
10479;SDS011;12789;42.610;23.040;2022-11-25T06:10:44;4.23;;;3.40;;
10479;SDS011;12789;42.610;23.040;2022-11-25T06:13:11;4.27;;;3.10;;
10479;SDS011;12789;42.610;23.040;2022-11-25T06:15:39;2.87;;;2.67;;
10479;SDS011;12789;42.610;23.040;2022-11-25T06:18:06;3.83;;;2.40;;
10479;SDS011;12789;42.610;23.040;2022-11-25T06:20:34;2.67;;;2.47;;
10479;SDS011;12789;42.610;23.040;2022-11-25T06:23:01;2.97;;;2.30;;
10479;SDS011;12789;42.610;23.040;2022-11-25T06:25:28;4.83;;;2.80;;
10479;SDS011;12789;42.610;23.040;2022-11-25T06:27:55;3.10;;;2.73;;
10479;SDS011;12789;42.610;23.040;2022-11-25T06:30:22;4.60;;;3.70;;
10479;SDS011;12789;42.610;23.040;2022-11-25T06:32:49;3.50;;;3.20;;
10479;SDS011;12789;42.610;23.040;2022-11-25T06:35:17;3.87;;;3.47;;
10479;SDS011;12789;42.610;23.040;2022-11-25T06:37:46;7.60;;;3.73;;
10479;SDS011;12789;42.610;23.040;2022-11-25T06:40:12;7.83;;;3.80;;
10479;SDS011;12789;42.610;23.040;2022-11-25T06:42:41;3.30;;;3.00;;
10479;SDS011;12789;42.610;23.040;2022-11-25T06:45:09;6.00;;;3.60;;
10479;SDS011;12789;42.610;23.040;2022-11-25T06:47:35;4.30;;;3.70;;
10479;SDS011;12789;42.610;23.040;2022-11-25T06:50:03;5.27;;;3.57;;
10479;SDS011;12789;42.610;23.040;2022-11-25T06:52:31;5.27;;;4.10;;
10479;SDS011;12789;42.610;23.040;2022-11-25T06:54:59;5.60;;;3.30;;
10479;SDS011;12789;42.610;23.040;2022-11-25T06:57:26;3.90;;;3.50;;
10479;SDS011;12789;42.610;23.040;2022-11-25T06:59:53;3.90;;;3.50;;
10479;SDS011;12789;42.610;23.040;2022-11-25T07:02:20;6.80;;;4.03;;
10479;SDS011;12789;42.610;23.040;2022-11-25T07:04:47;5.27;;;3.80;;
10479;SDS011;12789;42.610;23.040;2022-11-25T07:07:14;4.10;;;3.70;;
10479;SDS011;12789;42.610;23.040;2022-11-25T07:09:41;3.87;;;3.57;;
10479;SDS011;12789;42.610;23.040;2022-11-25T07:12:10;4.70;;;3.73;;
10479;SDS011;12789;42.610;23.040;2022-11-25T07:14:38;3.83;;;3.40;;
10479;SDS011;12789;42.610;23.040;2022-11-25T07:17:05;4.27;;;3.87;;
10479;SDS011;12789;42.610;23.040;2022-11-25T07:19:31;6.00;;;3.73;;
10479;SDS011;12789;42.610;23.040;2022-11-25T07:22:00;4.93;;;3.43;;
10479;SDS011;12789;42.610;23.040;2022-11-25T07:24:27;3.20;;;2.90;;
10479;SDS011;12789;42.610;23.040;2022-11-25T07:26:53;3.00;;;2.70;;
10479;SDS011;12789;42.610;23.040;2022-11-25T07:29:22;3.83;;;2.47;;
10479;SDS011;12789;42.610;23.040;2022-11-25T07:31:49;3.30;;;3.00;;
10479;SDS011;12789;42.610;23.040;2022-11-25T07:34:17;3.30;;;2.70;;
10479;SDS011;12789;42.610;23.040;2022-11-25T07:36:45;3.80;;;2.53;;
10479;SDS011;12789;42.610;23.040;2022-11-25T07:39:12;2.80;;;2.60;;
10479;SDS011;12789;42.610;23.040;2022-11-25T07:41:39;4.03;;;3.10;;
10479;SDS011;12789;42.610;23.040;2022-11-25T07:44:07;3.23;;;2.90;;
10479;SDS011;12789;42.610;23.040;2022-11-25T07:46:38;3.10;;;2.57;;
10479;SDS011;12789;42.610;23.040;2022-11-25T07:49:06;3.57;;;2.63;;
10479;SDS011;12789;42.610;23.040;2022-11-25T07:51:33;2.80;;;2.60;;
10479;SDS011;12789;42.610;23.040;2022-11-25T07:54:01;3.03;;;2.70;;
10479;SDS011;12789;42.610;23.040;2022-11-25T07:56:28;3.07;;;2.70;;
10479;SDS011;12789;42.610;23.040;2022-11-25T07:58:56;4.10;;;3.07;;
10479;SDS011;12789;42.610;23.040;2022-11-25T08:01:23;4.40;;;4.00;;
10479;SDS011;12789;42.610;23.040;2022-11-25T08:03:52;3.17;;;2.83;;
10479;SDS011;12789;42.610;23.040;2022-11-25T08:06:20;5.23;;;3.27;;
10479;SDS011;12789;42.610;23.040;2022-11-25T08:08:47;3.40;;;2.30;;
10479;SDS011;12789;42.610;23.040;2022-11-25T08:11:14;2.40;;;2.20;;
10479;SDS011;12789;42.610;23.040;2022-11-25T08:13:42;2.63;;;2.17;;
10479;SDS011;12789;42.610;23.040;2022-11-25T08:16:09;4.43;;;3.27;;
10479;SDS011;12789;42.610;23.040;2022-11-25T08:18:37;3.37;;;3.00;;
10479;SDS011;12789;42.610;23.040;2022-11-25T08:21:07;3.07;;;2.77;;
10479;SDS011;12789;42.610;23.040;2022-11-25T08:23:34;3.70;;;2.87;;
10479;SDS011;12789;42.610;23.040;2022-11-25T08:26:02;3.00;;;2.13;;
10479;SDS011;12789;42.610;23.040;2022-11-25T08:28:29;2.57;;;2.37;;
10479;SDS011;12789;42.610;23.040;2022-11-25T08:31:00;4.67;;;2.60;;
10479;SDS011;12789;42.610;23.040;2022-11-25T08:33:26;2.90;;;2.60;;
10479;SDS011;12789;42.610;23.040;2022-11-25T08:35:53;4.73;;;3.23;;
10479;SDS011;12789;42.610;23.040;2022-11-25T08:38:22;3.00;;;2.80;;
10479;SDS011;12789;42.610;23.040;2022-11-25T08:40:49;2.67;;;2.47;;
10479;SDS011;12789;42.610;23.040;2022-11-25T08:43:16;2.73;;;2.53;;
10479;SDS011;12789;42.610;23.040;2022-11-25T08:45:45;6.90;;;3.13;;
10479;SDS011;12789;42.610;23.040;2022-11-25T08:48:12;3.13;;;2.80;;
10479;SDS011;12789;42.610;23.040;2022-11-25T08:50:39;4.90;;;3.40;;
10479;SDS011;12789;42.610;23.040;2022-11-25T08:53:06;3.20;;;2.90;;
10479;SDS011;12789;42.610;23.040;2022-11-25T08:55:34;3.57;;;3.10;;
10479;SDS011;12789;42.610;23.040;2022-11-25T08:58:03;3.90;;;3.00;;
10479;SDS011;12789;42.610;23.040;2022-11-25T09:00:34;3.73;;;3.00;;
10479;SDS011;12789;42.610;23.040;2022-11-25T09:03:01;5.00;;;3.10;;
10479;SDS011;12789;42.610;23.040;2022-11-25T09:05:28;4.60;;;4.13;;
10479;SDS011;12789;42.610;23.040;2022-11-25T09:08:00;6.40;;;4.80;;
10479;SDS011;12789;42.610;23.040;2022-11-25T09:10:27;7.17;;;5.10;;
10479;SDS011;12789;42.610;23.040;2022-11-25T09:12:55;3.77;;;2.90;;
10479;SDS011;12789;42.610;23.040;2022-11-25T09:15:22;3.20;;;2.90;;
10479;SDS011;12789;42.610;23.040;2022-11-25T09:17:56;3.60;;;3.30;;
10479;SDS011;12789;42.610;23.040;2022-11-25T09:20:23;3.33;;;3.03;;
10479;SDS011;12789;42.610;23.040;2022-11-25T09:22:49;3.93;;;3.63;;
10479;SDS011;12789;42.610;23.040;2022-11-25T09:25:16;6.83;;;4.37;;
10479;SDS011;12789;42.610;23.040;2022-11-25T09:27:43;6.03;;;3.87;;
10479;SDS011;12789;42.610;23.040;2022-11-25T09:30:12;10.47;;;5.83;;
10479;SDS011;12789;42.610;23.040;2022-11-25T09:32:39;5.97;;;4.40;;
10479;SDS011;12789;42.610;23.040;2022-11-25T09:35:06;8.10;;;6.10;;
10479;SDS011;12789;42.610;23.040;2022-11-25T09:37:33;6.50;;;3.67;;
10479;SDS011;12789;42.610;23.040;2022-11-25T09:40:00;4.97;;;3.73;;
10479;SDS011;12789;42.610;23.040;2022-11-25T09:42:29;1.80;;;1.70;;
10479;SDS011;12789;42.610;23.040;2022-11-25T09:45:19;6.43;;;3.10;;
10479;SDS011;12789;42.610;23.040;2022-11-25T09:50:50;3.50;;;2.50;;
10479;SDS011;12789;42.610;23.040;2022-11-25T09:53:22;2.33;;;2.03;;
10479;SDS011;12789;42.610;23.040;2022-11-25T09:55:50;4.23;;;2.97;;
10479;SDS011;12789;42.610;23.040;2022-11-25T09:58:20;5.07;;;3.23;;
10479;SDS011;12789;42.610;23.040;2022-11-25T10:00:52;3.07;;;2.53;;
10479;SDS011;12789;42.610;23.040;2022-11-25T10:03:22;3.63;;;3.10;;
10479;SDS011;12789;42.610;23.040;2022-11-25T10:05:56;4.17;;;2.63;;
10479;SDS011;12789;42.610;23.040;2022-11-25T10:08:25;3.50;;;3.20;;
10479;SDS011;12789;42.610;23.040;2022-11-25T10:10:54;5.13;;;2.67;;
10479;SDS011;12789;42.610;23.040;2022-11-25T10:13:23;3.53;;;2.87;;
10479;SDS011;12789;42.610;23.040;2022-11-25T10:15:55;3.13;;;2.77;;
10479;SDS011;12789;42.610;23.040;2022-11-25T10:18:24;7.40;;;3.90;;
10479;SDS011;12789;42.610;23.040;2022-11-25T10:20:52;2.20;;;2.00;;
10479;SDS011;12789;42.610;23.040;2022-11-25T10:23:22;3.27;;;2.23;;
10479;SDS011;12789;42.610;23.040;2022-11-25T10:25:51;2.50;;;2.23;;
10479;SDS011;12789;42.610;23.040;2022-11-25T10:28:20;3.00;;;2.67;;
10479;SDS011;12789;42.610;23.040;2022-11-25T10:30:49;2.97;;;2.60;;
10479;SDS011;12789;42.610;23.040;2022-11-25T10:33:19;2.50;;;2.30;;
10479;SDS011;12789;42.610;23.040;2022-11-25T10:35:48;2.90;;;2.70;;
10479;SDS011;12789;42.610;23.040;2022-11-25T10:38:17;3.27;;;2.97;;
10479;SDS011;12789;42.610;23.040;2022-11-25T10:40:46;3.27;;;2.93;;
10479;SDS011;12789;42.610;23.040;2022-11-25T10:43:14;2.40;;;2.20;;
10479;SDS011;12789;42.610;23.040;2022-11-25T10:45:43;5.90;;;3.53;;
10479;SDS011;12789;42.610;23.040;2022-11-25T10:48:16;4.00;;;3.60;;
10479;SDS011;12789;42.610;23.040;2022-11-25T10:50:52;6.07;;;4.90;;
10479;SDS011;12789;42.610;23.040;2022-11-25T10:53:20;2.93;;;2.53;;
10479;SDS011;12789;42.610;23.040;2022-11-25T10:55:55;4.17;;;3.30;;
10479;SDS011;12789;42.610;23.040;2022-11-25T10:58:25;5.07;;;3.97;;
10479;SDS011;12789;42.610;23.040;2022-11-25T11:01:00;8.07;;;4.10;;
10479;SDS011;12789;42.610;23.040;2022-11-25T11:03:27;4.90;;;3.73;;
10479;SDS011;12789;42.610;23.040;2022-11-25T11:05:55;5.23;;;4.17;;
10479;SDS011;12789;42.610;23.040;2022-11-25T11:08:23;4.33;;;3.80;;
10479;SDS011;12789;42.610;23.040;2022-11-25T11:13:31;3.10;;;2.80;;
10479;SDS011;12789;42.610;23.040;2022-11-25T11:15:58;6.63;;;4.23;;
10479;SDS011;12789;42.610;23.040;2022-11-25T11:18:26;4.00;;;3.03;;
10479;SDS011;12789;42.610;23.040;2022-11-25T11:20:54;6.13;;;4.40;;
10479;SDS011;12789;42.610;23.040;2022-11-25T11:23:22;6.27;;;4.43;;
10479;SDS011;12789;42.610;23.040;2022-11-25T11:25:57;5.20;;;3.60;;
10479;SDS011;12789;42.610;23.040;2022-11-25T11:28:25;4.93;;;4.00;;
10479;SDS011;12789;42.610;23.040;2022-11-25T11:30:52;4.97;;;3.67;;
10479;SDS011;12789;42.610;23.040;2022-11-25T11:33:27;5.60;;;3.13;;
10479;SDS011;12789;42.610;23.040;2022-11-25T11:35:56;4.97;;;3.80;;
10479;SDS011;12789;42.610;23.040;2022-11-25T11:38:26;5.40;;;3.90;;
10479;SDS011;12789;42.610;23.040;2022-11-25T11:40:55;4.63;;;3.60;;
10479;SDS011;12789;42.610;23.040;2022-11-25T11:43:34;4.43;;;3.77;;
10479;SDS011;12789;42.610;23.040;2022-11-25T11:46:11;4.23;;;3.30;;
10479;SDS011;12789;42.610;23.040;2022-11-25T11:48:42;3.60;;;3.30;;
10479;SDS011;12789;42.610;23.040;2022-11-25T11:51:13;4.80;;;3.20;;
10479;SDS011;12789;42.610;23.040;2022-11-25T11:53:43;7.67;;;3.83;;
10479;SDS011;12789;42.610;23.040;2022-11-25T11:56:14;7.10;;;3.73;;
10479;SDS011;12789;42.610;23.040;2022-11-25T11:58:48;5.67;;;3.00;;
10479;SDS011;12789;42.610;23.040;2022-11-25T12:01:23;4.70;;;3.70;;
10479;SDS011;12789;42.610;23.040;2022-11-25T12:03:54;5.47;;;3.73;;
10479;SDS011;12789;42.610;23.040;2022-11-25T12:06:23;3.00;;;2.70;;
10479;SDS011;12789;42.610;23.040;2022-11-25T12:08:53;3.07;;;2.87;;
10479;SDS011;12789;42.610;23.040;2022-11-25T12:11:24;6.63;;;4.23;;
10479;SDS011;12789;42.610;23.040;2022-11-25T12:13:53;7.60;;;3.30;;
10479;SDS011;12789;42.610;23.040;2022-11-25T12:16:23;4.23;;;3.53;;
10479;SDS011;12789;42.610;23.040;2022-11-25T12:18:52;3.80;;;3.50;;
10479;SDS011;12789;42.610;23.040;2022-11-25T12:21:27;4.87;;;3.23;;
10479;SDS011;12789;42.610;23.040;2022-11-25T12:24:00;4.77;;;4.33;;
10479;SDS011;12789;42.610;23.040;2022-11-25T12:26:29;5.93;;;4.67;;
10479;SDS011;12789;42.610;23.040;2022-11-25T12:29:00;5.47;;;4.13;;
10479;SDS011;12789;42.610;23.040;2022-11-25T12:31:28;5.80;;;4.00;;
10479;SDS011;12789;42.610;23.040;2022-11-25T12:33:59;6.17;;;4.90;;
10479;SDS011;12789;42.610;23.040;2022-11-25T12:36:28;9.50;;;6.17;;
10479;SDS011;12789;42.610;23.040;2022-11-25T12:38:58;7.53;;;5.57;;
10479;SDS011;12789;42.610;23.040;2022-11-25T12:41:27;9.10;;;4.90;;
10479;SDS011;12789;42.610;23.040;2022-11-25T12:43:59;5.20;;;3.30;;
10479;SDS011;12789;42.610;23.040;2022-11-25T12:46:29;4.50;;;3.70;;
10479;SDS011;12789;42.610;23.040;2022-11-25T12:48:58;4.23;;;3.83;;
10479;SDS011;12789;42.610;23.040;2022-11-25T12:54:15;6.00;;;3.47;;
10479;SDS011;12789;42.610;23.040;2022-11-25T13:02:22;5.00;;;3.87;;
10479;SDS011;12789;42.610;23.040;2022-11-25T13:05:03;5.77;;;3.90;;
10479;SDS011;12789;42.610;23.040;2022-11-25T13:07:39;6.57;;;3.77;;
10479;SDS011;12789;42.610;23.040;2022-11-25T13:13:05;5.97;;;3.97;;
10479;SDS011;12789;42.610;23.040;2022-11-25T13:15:34;5.03;;;4.30;;
10479;SDS011;12789;42.610;23.040;2022-11-25T13:18:07;5.53;;;4.17;;
10479;SDS011;12789;42.610;23.040;2022-11-25T13:20:37;4.00;;;3.33;;
10479;SDS011;12789;42.610;23.040;2022-11-25T13:23:06;4.97;;;4.17;;
10479;SDS011;12789;42.610;23.040;2022-11-25T13:25:35;6.93;;;5.20;;
10479;SDS011;12789;42.610;23.040;2022-11-25T13:28:02;5.27;;;4.30;;
10479;SDS011;12789;42.610;23.040;2022-11-25T13:30:35;4.03;;;3.63;;
10479;SDS011;12789;42.610;23.040;2022-11-25T13:33:49;6.10;;;4.80;;
10479;SDS011;12789;42.610;23.040;2022-11-25T13:35:59;4.97;;;4.03;;
10479;SDS011;12789;42.610;23.040;2022-11-25T13:38:56;5.43;;;4.67;;
10479;SDS011;12789;42.610;23.040;2022-11-25T13:46:55;9.33;;;4.87;;
10479;SDS011;12789;42.610;23.040;2022-11-25T13:49:37;8.47;;;4.93;;
10479;SDS011;12789;42.610;23.040;2022-11-25T13:52:22;9.17;;;5.10;;
10479;SDS011;12789;42.610;23.040;2022-11-25T13:54:50;6.67;;;5.00;;
10479;SDS011;12789;42.610;23.040;2022-11-25T13:57:23;3.37;;;3.07;;
10479;SDS011;12789;42.610;23.040;2022-11-25T13:59:52;6.10;;;3.70;;
10479;SDS011;12789;42.610;23.040;2022-11-25T14:02:35;5.47;;;4.10;;
10479;SDS011;12789;42.610;23.040;2022-11-25T14:07:55;4.63;;;3.47;;
10479;SDS011;12789;42.610;23.040;2022-11-25T14:10:37;5.83;;;4.57;;
10479;SDS011;12789;42.610;23.040;2022-11-25T14:13:19;7.90;;;6.40;;
10479;SDS011;12789;42.610;23.040;2022-11-25T14:15:51;11.73;;;8.93;;
10479;SDS011;12789;42.610;23.040;2022-11-25T14:18:26;10.67;;;7.67;;
10479;SDS011;12789;42.610;23.040;2022-11-25T14:20:59;10.20;;;7.70;;
10479;SDS011;12789;42.610;23.040;2022-11-25T14:26:22;27.60;;;18.13;;
10479;SDS011;12789;42.610;23.040;2022-11-25T14:28:52;24.70;;;14.80;;
10479;SDS011;12789;42.610;23.040;2022-11-25T14:31:21;18.57;;;11.50;;
10479;SDS011;12789;42.610;23.040;2022-11-25T14:33:50;12.70;;;8.17;;
10479;SDS011;12789;42.610;23.040;2022-11-25T14:36:20;13.43;;;8.83;;
10479;SDS011;12789;42.610;23.040;2022-11-25T14:38:49;20.77;;;13.27;;
10479;SDS011;12789;42.610;23.040;2022-11-25T14:41:21;14.27;;;9.10;;
10479;SDS011;12789;42.610;23.040;2022-11-25T14:43:51;12.83;;;7.63;;
10479;SDS011;12789;42.610;23.040;2022-11-25T14:46:19;9.13;;;7.20;;
10479;SDS011;12789;42.610;23.040;2022-11-25T14:48:51;9.53;;;6.87;;
10479;SDS011;12789;42.610;23.040;2022-11-25T14:51:18;6.87;;;5.80;;
10479;SDS011;12789;42.610;23.040;2022-11-25T14:53:46;13.57;;;8.53;;
10479;SDS011;12789;42.610;23.040;2022-11-25T14:56:13;13.77;;;10.90;;
10479;SDS011;12789;42.610;23.040;2022-11-25T14:58:41;15.43;;;11.77;;
10479;SDS011;12789;42.610;23.040;2022-11-25T15:01:15;15.63;;;11.13;;
10479;SDS011;12789;42.610;23.040;2022-11-25T15:03:44;18.13;;;9.93;;
10479;SDS011;12789;42.610;23.040;2022-11-25T15:06:12;13.67;;;9.77;;
10479;SDS011;12789;42.610;23.040;2022-11-25T15:08:40;16.17;;;10.50;;
10479;SDS011;12789;42.610;23.040;2022-11-25T15:11:09;27.47;;;18.60;;